sensor_id;sensor_type;location;lat;lon;timestamp;P1;durP1;ratioP1;P2;durP2;ratioP2
54143;SDS011;40050;47.324;18.792;2024-03-08T00:00:12;11.77;;;6.94;;
54143;SDS011;40050;47.324;18.792;2024-03-08T00:02:12;9.68;;;6.64;;
54143;SDS011;40050;47.324;18.792;2024-03-08T00:04:13;10.42;;;7.13;;
54143;SDS011;40050;47.324;18.792;2024-03-08T00:06:14;9.79;;;6.45;;
54143;SDS011;40050;47.324;18.792;2024-03-08T00:08:15;12.68;;;7.23;;
54143;SDS011;40050;47.324;18.792;2024-03-08T00:10:16;10.95;;;6.84;;
54143;SDS011;40050;47.324;18.792;2024-03-08T00:12:17;10.77;;;7.23;;
54143;SDS011;40050;47.324;18.792;2024-03-08T00:14:18;11.23;;;7.03;;
54143;SDS011;40050;47.324;18.792;2024-03-08T00:16:19;11.69;;;6.94;;
54143;SDS011;40050;47.324;18.792;2024-03-08T00:18:20;10.33;;;6.74;;
54143;SDS011;40050;47.324;18.792;2024-03-08T00:20:21;10.96;;;6.84;;
54143;SDS011;40050;47.324;18.792;2024-03-08T00:22:22;11.68;;;7.04;;
54143;SDS011;40050;47.324;18.792;2024-03-08T00:24:22;9.87;;;6.64;;
54143;SDS011;40050;47.324;18.792;2024-03-08T00:26:23;10.86;;;7.13;;
54143;SDS011;40050;47.324;18.792;2024-03-08T00:28:24;11.50;;;7.43;;
54143;SDS011;40050;47.324;18.792;2024-03-08T00:30:25;12.43;;;8.12;;
54143;SDS011;40050;47.324;18.792;2024-03-08T00:32:26;12.25;;;7.72;;
54143;SDS011;40050;47.324;18.792;2024-03-08T00:34:27;12.05;;;7.91;;
54143;SDS011;40050;47.324;18.792;2024-03-08T00:36:28;13.85;;;8.21;;
54143;SDS011;40050;47.324;18.792;2024-03-08T00:38:29;11.76;;;8.30;;
54143;SDS011;40050;47.324;18.792;2024-03-08T00:40:30;13.84;;;8.20;;
54143;SDS011;40050;47.324;18.792;2024-03-08T00:42:31;13.21;;;7.81;;
54143;SDS011;40050;47.324;18.792;2024-03-08T00:44:32;12.70;;;7.82;;
54143;SDS011;40050;47.324;18.792;2024-03-08T00:46:33;13.13;;;8.01;;
54143;SDS011;40050;47.324;18.792;2024-03-08T00:48:34;12.76;;;7.82;;
54143;SDS011;40050;47.324;18.792;2024-03-08T00:50:35;12.85;;;8.40;;
54143;SDS011;40050;47.324;18.792;2024-03-08T00:52:37;13.65;;;8.20;;
54143;SDS011;40050;47.324;18.792;2024-03-08T00:54:37;13.08;;;7.90;;
54143;SDS011;40050;47.324;18.792;2024-03-08T00:56:41;12.52;;;8.00;;
54143;SDS011;40050;47.324;18.792;2024-03-08T00:58:42;12.80;;;8.19;;
54143;SDS011;40050;47.324;18.792;2024-03-08T01:00:43;13.70;;;7.90;;
54143;SDS011;40050;47.324;18.792;2024-03-08T01:02:44;13.70;;;8.49;;
54143;SDS011;40050;47.324;18.792;2024-03-08T01:04:45;12.71;;;8.19;;
54143;SDS011;40050;47.324;18.792;2024-03-08T01:06:46;14.88;;;8.29;;
54143;SDS011;40050;47.324;18.792;2024-03-08T01:08:46;15.15;;;9.17;;
54143;SDS011;40050;47.324;18.792;2024-03-08T01:10:47;12.72;;;8.39;;
54143;SDS011;40050;47.324;18.792;2024-03-08T01:12:48;14.71;;;9.27;;
54143;SDS011;40050;47.324;18.792;2024-03-08T01:14:49;16.86;;;9.85;;
54143;SDS011;40050;47.324;18.792;2024-03-08T01:16:50;18.10;;;9.56;;
54143;SDS011;40050;47.324;18.792;2024-03-08T01:18:51;17.00;;;9.94;;
54143;SDS011;40050;47.324;18.792;2024-03-08T01:20:52;17.09;;;10.23;;
54143;SDS011;40050;47.324;18.792;2024-03-08T01:22:53;17.54;;;10.14;;
54143;SDS011;40050;47.324;18.792;2024-03-08T01:24:54;16.83;;;9.94;;
54143;SDS011;40050;47.324;18.792;2024-03-08T01:26:55;17.89;;;9.84;;
54143;SDS011;40050;47.324;18.792;2024-03-08T01:28:56;18.50;;;11.49;;
54143;SDS011;40050;47.324;18.792;2024-03-08T01:30:57;17.77;;;11.00;;
54143;SDS011;40050;47.324;18.792;2024-03-08T01:32:58;19.04;;;11.10;;
54143;SDS011;40050;47.324;18.792;2024-03-08T01:34:59;19.75;;;11.40;;
54143;SDS011;40050;47.324;18.792;2024-03-08T01:37:00;19.73;;;11.68;;
54143;SDS011;40050;47.324;18.792;2024-03-08T01:39:01;23.28;;;11.48;;
54143;SDS011;40050;47.324;18.792;2024-03-08T01:41:02;23.43;;;12.25;;
54143;SDS011;40050;47.324;18.792;2024-03-08T01:43:48;19.50;;;11.87;;
54143;SDS011;40050;47.324;18.792;2024-03-08T01:45:06;22.92;;;12.16;;
54143;SDS011;40050;47.324;18.792;2024-03-08T01:47:06;21.67;;;12.84;;
54143;SDS011;40050;47.324;18.792;2024-03-08T01:49:07;23.04;;;13.14;;
54143;SDS011;40050;47.324;18.792;2024-03-08T01:51:08;23.53;;;13.64;;
54143;SDS011;40050;47.324;18.792;2024-03-08T01:53:09;23.64;;;13.35;;
54143;SDS011;40050;47.324;18.792;2024-03-08T01:55:10;28.92;;;15.29;;
54143;SDS011;40050;47.324;18.792;2024-03-08T01:57:11;27.95;;;15.59;;
54143;SDS011;40050;47.324;18.792;2024-03-08T01:59:12;31.01;;;15.88;;
54143;SDS011;40050;47.324;18.792;2024-03-08T02:01:17;29.73;;;15.49;;
54143;SDS011;40050;47.324;18.792;2024-03-08T02:03:20;30.33;;;15.77;;
54143;SDS011;40050;47.324;18.792;2024-03-08T02:05:21;29.77;;;16.84;;
54143;SDS011;40050;47.324;18.792;2024-03-08T02:07:22;29.96;;;16.07;;
54143;SDS011;40050;47.324;18.792;2024-03-08T02:09:23;28.91;;;16.46;;
54143;SDS011;40050;47.324;18.792;2024-03-08T02:11:24;32.97;;;17.24;;
54143;SDS011;40050;47.324;18.792;2024-03-08T02:13:25;30.35;;;16.85;;
54143;SDS011;40050;47.324;18.792;2024-03-08T02:15:25;32.02;;;17.33;;
54143;SDS011;40050;47.324;18.792;2024-03-08T02:17:26;29.71;;;17.04;;
54143;SDS011;40050;47.324;18.792;2024-03-08T02:19:27;31.87;;;16.65;;
54143;SDS011;40050;47.324;18.792;2024-03-08T02:21:31;30.16;;;17.43;;
54143;SDS011;40050;47.324;18.792;2024-03-08T02:23:33;32.69;;;17.44;;
54143;SDS011;40050;47.324;18.792;2024-03-08T02:25:33;31.28;;;17.25;;
54143;SDS011;40050;47.324;18.792;2024-03-08T02:27:35;31.74;;;17.73;;
54143;SDS011;40050;47.324;18.792;2024-03-08T02:29:36;31.34;;;17.34;;
54143;SDS011;40050;47.324;18.792;2024-03-08T02:31:37;32.76;;;17.43;;
54143;SDS011;40050;47.324;18.792;2024-03-08T02:33:38;33.46;;;18.21;;
54143;SDS011;40050;47.324;18.792;2024-03-08T02:35:39;34.53;;;18.50;;
54143;SDS011;40050;47.324;18.792;2024-03-08T02:37:40;31.64;;;18.49;;
54143;SDS011;40050;47.324;18.792;2024-03-08T02:39:41;36.80;;;18.41;;
54143;SDS011;40050;47.324;18.792;2024-03-08T02:41:42;37.08;;;19.67;;
54143;SDS011;40050;47.324;18.792;2024-03-08T02:43:43;32.42;;;18.41;;
54143;SDS011;40050;47.324;18.792;2024-03-08T02:45:45;36.94;;;19.39;;
54143;SDS011;40050;47.324;18.792;2024-03-08T02:47:45;37.35;;;19.67;;
54143;SDS011;40050;47.324;18.792;2024-03-08T02:49:46;34.65;;;18.60;;
54143;SDS011;40050;47.324;18.792;2024-03-08T02:51:47;36.45;;;18.89;;
54143;SDS011;40050;47.324;18.792;2024-03-08T02:53:48;37.43;;;19.57;;
54143;SDS011;40050;47.324;18.792;2024-03-08T02:55:49;39.47;;;20.85;;
54143;SDS011;40050;47.324;18.792;2024-03-08T02:57:50;40.13;;;20.18;;
54143;SDS011;40050;47.324;18.792;2024-03-08T02:59:51;38.75;;;20.29;;
54143;SDS011;40050;47.324;18.792;2024-03-08T03:01:52;37.77;;;20.97;;
54143;SDS011;40050;47.324;18.792;2024-03-08T03:03:52;40.95;;;20.68;;
54143;SDS011;40050;47.324;18.792;2024-03-08T03:05:54;40.67;;;19.80;;
54143;SDS011;40050;47.324;18.792;2024-03-08T03:07:55;38.70;;;20.20;;
54143;SDS011;40050;47.324;18.792;2024-03-08T03:09:56;45.37;;;21.38;;
54143;SDS011;40050;47.324;18.792;2024-03-08T03:11:57;39.07;;;20.70;;
54143;SDS011;40050;47.324;18.792;2024-03-08T03:13:58;41.69;;;21.68;;
54143;SDS011;40050;47.324;18.792;2024-03-08T03:15:59;40.93;;;21.38;;
54143;SDS011;40050;47.324;18.792;2024-03-08T03:17:59;41.92;;;22.16;;
54143;SDS011;40050;47.324;18.792;2024-03-08T03:20:00;43.26;;;22.25;;
54143;SDS011;40050;47.324;18.792;2024-03-08T03:22:01;39.77;;;20.99;;
54143;SDS011;40050;47.324;18.792;2024-03-08T03:24:02;39.22;;;21.48;;
54143;SDS011;40050;47.324;18.792;2024-03-08T03:26:03;41.80;;;21.76;;
54143;SDS011;40050;47.324;18.792;2024-03-08T03:28:04;41.90;;;21.96;;
54143;SDS011;40050;47.324;18.792;2024-03-08T03:30:05;47.27;;;22.26;;
54143;SDS011;40050;47.324;18.792;2024-03-08T03:32:06;41.82;;;20.99;;
54143;SDS011;40050;47.324;18.792;2024-03-08T03:34:07;44.69;;;22.45;;
54143;SDS011;40050;47.324;18.792;2024-03-08T03:36:08;43.78;;;21.57;;
54143;SDS011;40050;47.324;18.792;2024-03-08T03:38:09;40.40;;;21.97;;
54143;SDS011;40050;47.324;18.792;2024-03-08T03:40:11;45.34;;;22.16;;
54143;SDS011;40050;47.324;18.792;2024-03-08T03:42:11;43.51;;;21.57;;
54143;SDS011;40050;47.324;18.792;2024-03-08T03:44:12;43.41;;;22.44;;
54143;SDS011;40050;47.324;18.792;2024-03-08T03:46:13;43.34;;;22.55;;
54143;SDS011;40050;47.324;18.792;2024-03-08T03:48:14;44.65;;;22.75;;
54143;SDS011;40050;47.324;18.792;2024-03-08T03:50:15;49.87;;;23.35;;
54143;SDS011;40050;47.324;18.792;2024-03-08T03:52:16;44.70;;;23.34;;
54143;SDS011;40050;47.324;18.792;2024-03-08T03:54:16;50.04;;;24.42;;
54143;SDS011;40050;47.324;18.792;2024-03-08T03:56:17;48.25;;;23.15;;
54143;SDS011;40050;47.324;18.792;2024-03-08T03:58:18;48.15;;;23.66;;
54143;SDS011;40050;47.324;18.792;2024-03-08T04:00:19;46.74;;;24.13;;
54143;SDS011;40050;47.324;18.792;2024-03-08T04:02:20;45.32;;;23.36;;
54143;SDS011;40050;47.324;18.792;2024-03-08T04:04:21;47.56;;;24.82;;
54143;SDS011;40050;47.324;18.792;2024-03-08T04:06:22;48.59;;;23.85;;
54143;SDS011;40050;47.324;18.792;2024-03-08T04:08:23;51.16;;;23.95;;
54143;SDS011;40050;47.324;18.792;2024-03-08T04:10:24;47.95;;;24.16;;
54143;SDS011;40050;47.324;18.792;2024-03-08T04:12:25;49.97;;;24.26;;
54143;SDS011;40050;47.324;18.792;2024-03-08T04:14:26;50.44;;;25.45;;
54143;SDS011;40050;47.324;18.792;2024-03-08T04:16:27;54.52;;;26.22;;
54143;SDS011;40050;47.324;18.792;2024-03-08T04:18:27;50.07;;;25.14;;
54143;SDS011;40050;47.324;18.792;2024-03-08T04:20:28;51.56;;;25.93;;
54143;SDS011;40050;47.324;18.792;2024-03-08T04:22:29;50.56;;;25.83;;
54143;SDS011;40050;47.324;18.792;2024-03-08T04:24:30;52.79;;;25.04;;
54143;SDS011;40050;47.324;18.792;2024-03-08T04:26:31;50.44;;;26.02;;
54143;SDS011;40050;47.324;18.792;2024-03-08T04:28:32;50.30;;;25.13;;
54143;SDS011;40050;47.324;18.792;2024-03-08T04:30:33;50.15;;;25.42;;
54143;SDS011;40050;47.324;18.792;2024-03-08T04:32:35;50.67;;;24.55;;
54143;SDS011;40050;47.324;18.792;2024-03-08T04:34:36;54.78;;;25.81;;
54143;SDS011;40050;47.324;18.792;2024-03-08T04:36:37;54.69;;;25.91;;
54143;SDS011;40050;47.324;18.792;2024-03-08T04:38:38;52.55;;;26.48;;
54143;SDS011;40050;47.324;18.792;2024-03-08T04:40:39;53.31;;;25.02;;
54143;SDS011;40050;47.324;18.792;2024-03-08T04:42:40;52.91;;;25.80;;
54143;SDS011;40050;47.324;18.792;2024-03-08T04:44:42;53.07;;;25.79;;
54143;SDS011;40050;47.324;18.792;2024-03-08T04:46:43;54.24;;;26.36;;
54143;SDS011;40050;47.324;18.792;2024-03-08T04:48:43;48.73;;;25.70;;
54143;SDS011;40050;47.324;18.792;2024-03-08T04:50:44;53.24;;;25.70;;
54143;SDS011;40050;47.324;18.792;2024-03-08T04:52:45;51.87;;;25.69;;
54143;SDS011;40050;47.324;18.792;2024-03-08T04:54:46;53.15;;;26.36;;
54143;SDS011;40050;47.324;18.792;2024-03-08T04:56:47;53.90;;;26.16;;
54143;SDS011;40050;47.324;18.792;2024-03-08T04:58:48;57.48;;;25.94;;
54143;SDS011;40050;47.324;18.792;2024-03-08T05:00:49;57.59;;;26.63;;
54143;SDS011;40050;47.324;18.792;2024-03-08T05:02:50;50.89;;;25.66;;
54143;SDS011;40050;47.324;18.792;2024-03-08T05:04:51;51.56;;;25.86;;
54143;SDS011;40050;47.324;18.792;2024-03-08T05:06:52;52.47;;;25.77;;
54143;SDS011;40050;47.324;18.792;2024-03-08T05:08:53;54.01;;;26.26;;
54143;SDS011;40050;47.324;18.792;2024-03-08T05:10:54;54.38;;;25.19;;
54143;SDS011;40050;47.324;18.792;2024-03-08T05:12:55;49.62;;;25.37;;
54143;SDS011;40050;47.324;18.792;2024-03-08T05:14:56;56.43;;;26.35;;
54143;SDS011;40050;47.324;18.792;2024-03-08T05:16:56;55.01;;;27.04;;
54143;SDS011;40050;47.324;18.792;2024-03-08T05:18:57;54.45;;;26.55;;
54143;SDS011;40050;47.324;18.792;2024-03-08T05:20:58;55.64;;;27.04;;
54143;SDS011;40050;47.324;18.792;2024-03-08T05:22:59;51.81;;;26.35;;
54143;SDS011;40050;47.324;18.792;2024-03-08T05:25:00;53.38;;;25.87;;
54143;SDS011;40050;47.324;18.792;2024-03-08T05:27:01;55.19;;;26.45;;
54143;SDS011;40050;47.324;18.792;2024-03-08T05:29:02;52.62;;;26.17;;
54143;SDS011;40050;47.324;18.792;2024-03-08T05:31:03;53.26;;;25.88;;
54143;SDS011;40050;47.324;18.792;2024-03-08T05:33:04;54.32;;;26.17;;
54143;SDS011;40050;47.324;18.792;2024-03-08T05:35:05;59.62;;;26.94;;
54143;SDS011;40050;47.324;18.792;2024-03-08T05:37:05;52.13;;;25.87;;
54143;SDS011;40050;47.324;18.792;2024-03-08T05:39:06;54.46;;;26.55;;
54143;SDS011;40050;47.324;18.792;2024-03-08T05:41:07;53.63;;;26.35;;
54143;SDS011;40050;47.324;18.792;2024-03-08T05:43:08;55.77;;;27.05;;
54143;SDS011;40050;47.324;18.792;2024-03-08T05:45:09;59.13;;;27.93;;
54143;SDS011;40050;47.324;18.792;2024-03-08T05:47:10;53.90;;;26.56;;
54143;SDS011;40050;47.324;18.792;2024-03-08T05:49:11;53.84;;;26.85;;
54143;SDS011;40050;47.324;18.792;2024-03-08T05:51:14;55.02;;;25.97;;
54143;SDS011;40050;47.324;18.792;2024-03-08T05:53:15;52.99;;;26.04;;
54143;SDS011;40050;47.324;18.792;2024-03-08T05:55:16;56.34;;;26.81;;
54143;SDS011;40050;47.324;18.792;2024-03-08T05:57:17;51.77;;;25.45;;
54143;SDS011;40050;47.324;18.792;2024-03-08T05:59:18;54.74;;;26.63;;
54143;SDS011;40050;47.324;18.792;2024-03-08T06:01:19;54.34;;;26.74;;
54143;SDS011;40050;47.324;18.792;2024-03-08T06:03:20;51.97;;;26.15;;
54143;SDS011;40050;47.324;18.792;2024-03-08T06:05:20;54.63;;;26.14;;
54143;SDS011;40050;47.324;18.792;2024-03-08T06:07:21;53.68;;;26.64;;
54143;SDS011;40050;47.324;18.792;2024-03-08T06:09:23;48.95;;;25.17;;
54143;SDS011;40050;47.324;18.792;2024-03-08T06:11:23;53.10;;;26.38;;
54143;SDS011;40050;47.324;18.792;2024-03-08T06:13:24;52.80;;;26.53;;
54143;SDS011;40050;47.324;18.792;2024-03-08T06:15:27;54.91;;;26.83;;
54143;SDS011;40050;47.324;18.792;2024-03-08T06:17:26;56.05;;;26.64;;
54143;SDS011;40050;47.324;18.792;2024-03-08T06:19:27;57.05;;;27.41;;
54143;SDS011;40050;47.324;18.792;2024-03-08T06:21:28;56.16;;;26.60;;
54143;SDS011;40050;47.324;18.792;2024-03-08T06:23:29;53.73;;;27.33;;
54143;SDS011;40050;47.324;18.792;2024-03-08T06:25:30;58.86;;;28.30;;
54143;SDS011;40050;47.324;18.792;2024-03-08T06:27:31;50.29;;;25.46;;
54143;SDS011;40050;47.324;18.792;2024-03-08T06:29:32;55.17;;;27.51;;
54143;SDS011;40050;47.324;18.792;2024-03-08T06:31:33;56.21;;;26.64;;
54143;SDS011;40050;47.324;18.792;2024-03-08T06:33:34;54.84;;;27.46;;
54143;SDS011;40050;47.324;18.792;2024-03-08T06:35:38;56.42;;;26.71;;
54143;SDS011;40050;47.324;18.792;2024-03-08T06:37:39;56.29;;;28.47;;
54143;SDS011;40050;47.324;18.792;2024-03-08T06:39:40;54.69;;;27.50;;
54143;SDS011;40050;47.324;18.792;2024-03-08T06:41:41;57.66;;;27.19;;
54143;SDS011;40050;47.324;18.792;2024-03-08T06:43:42;55.70;;;26.40;;
54143;SDS011;40050;47.324;18.792;2024-03-08T06:45:43;54.80;;;26.89;;
54143;SDS011;40050;47.324;18.792;2024-03-08T06:47:43;59.24;;;27.77;;
54143;SDS011;40050;47.324;18.792;2024-03-08T06:49:45;54.53;;;27.20;;
54143;SDS011;40050;47.324;18.792;2024-03-08T06:51:46;55.69;;;27.60;;
54143;SDS011;40050;47.324;18.792;2024-03-08T06:53:47;55.07;;;26.71;;
54143;SDS011;40050;47.324;18.792;2024-03-08T06:55:48;57.04;;;27.88;;
54143;SDS011;40050;47.324;18.792;2024-03-08T06:57:49;59.29;;;28.17;;
54143;SDS011;40050;47.324;18.792;2024-03-08T06:59:50;60.40;;;28.26;;
54143;SDS011;40050;47.324;18.792;2024-03-08T07:01:50;53.05;;;27.09;;
54143;SDS011;40050;47.324;18.792;2024-03-08T07:03:51;58.95;;;28.38;;
54143;SDS011;40050;47.324;18.792;2024-03-08T07:05:52;57.22;;;26.58;;
54143;SDS011;40050;47.324;18.792;2024-03-08T07:07:53;57.52;;;28.69;;
54143;SDS011;40050;47.324;18.792;2024-03-08T07:09:57;59.40;;;28.71;;
54143;SDS011;40050;47.324;18.792;2024-03-08T07:11:58;60.86;;;28.62;;
54143;SDS011;40050;47.324;18.792;2024-03-08T07:13:58;58.02;;;27.84;;
54143;SDS011;40050;47.324;18.792;2024-03-08T07:15:59;58.84;;;28.83;;
54143;SDS011;40050;47.324;18.792;2024-03-08T07:18:00;61.64;;;28.53;;
54143;SDS011;40050;47.324;18.792;2024-03-08T07:20:01;58.36;;;28.64;;
54143;SDS011;40050;47.324;18.792;2024-03-08T07:22:02;55.20;;;26.88;;
54143;SDS011;40050;47.324;18.792;2024-03-08T07:24:03;52.78;;;27.09;;
54143;SDS011;40050;47.324;18.792;2024-03-08T07:26:04;58.58;;;27.78;;
54143;SDS011;40050;47.324;18.792;2024-03-08T07:28:05;60.68;;;28.21;;
54143;SDS011;40050;47.324;18.792;2024-03-08T07:30:06;56.78;;;28.20;;
54143;SDS011;40050;47.324;18.792;2024-03-08T07:32:07;60.13;;;28.01;;
54143;SDS011;40050;47.324;18.792;2024-03-08T07:34:08;57.87;;;27.81;;
54143;SDS011;40050;47.324;18.792;2024-03-08T07:36:09;61.08;;;29.30;;
54143;SDS011;40050;47.324;18.792;2024-03-08T07:38:10;59.94;;;27.54;;
54143;SDS011;40050;47.324;18.792;2024-03-08T07:40:11;58.38;;;28.12;;
54143;SDS011;40050;47.324;18.792;2024-03-08T07:42:12;55.95;;;27.92;;
54143;SDS011;40050;47.324;18.792;2024-03-08T07:44:12;57.04;;;27.73;;
54143;SDS011;40050;47.324;18.792;2024-03-08T07:46:13;63.81;;;28.80;;
54143;SDS011;40050;47.324;18.792;2024-03-08T07:48:14;60.75;;;29.57;;
54143;SDS011;40050;47.324;18.792;2024-03-08T07:50:15;58.44;;;28.10;;
54143;SDS011;40050;47.324;18.792;2024-03-08T07:52:16;62.20;;;28.30;;
54143;SDS011;40050;47.324;18.792;2024-03-08T07:54:17;58.41;;;27.91;;
54143;SDS011;40050;47.324;18.792;2024-03-08T07:56:18;58.87;;;28.63;;
54143;SDS011;40050;47.324;18.792;2024-03-08T07:58:19;62.76;;;29.97;;
54143;SDS011;40050;47.324;18.792;2024-03-08T08:00:20;60.93;;;28.41;;
54143;SDS011;40050;47.324;18.792;2024-03-08T08:02:21;59.15;;;28.11;;
54143;SDS011;40050;47.324;18.792;2024-03-08T08:04:21;57.15;;;28.51;;
54143;SDS011;40050;47.324;18.792;2024-03-08T08:06:22;60.52;;;29.09;;
54143;SDS011;40050;47.324;18.792;2024-03-08T08:08:23;57.30;;;27.92;;
54143;SDS011;40050;47.324;18.792;2024-03-08T08:10:24;59.93;;;29.11;;
54143;SDS011;40050;47.324;18.792;2024-03-08T08:12:26;60.89;;;29.01;;
54143;SDS011;40050;47.324;18.792;2024-03-08T08:14:27;61.54;;;29.63;;
54143;SDS011;40050;47.324;18.792;2024-03-08T08:16:27;61.24;;;28.94;;
54143;SDS011;40050;47.324;18.792;2024-03-08T08:18:28;63.76;;;29.73;;
54143;SDS011;40050;47.324;18.792;2024-03-08T08:20:29;63.31;;;29.80;;
54143;SDS011;40050;47.324;18.792;2024-03-08T08:22:30;64.33;;;29.59;;
54143;SDS011;40050;47.324;18.792;2024-03-08T08:24:31;60.73;;;28.02;;
54143;SDS011;40050;47.324;18.792;2024-03-08T08:26:32;61.36;;;28.70;;
54143;SDS011;40050;47.324;18.792;2024-03-08T08:28:33;60.11;;;28.80;;
54143;SDS011;40050;47.324;18.792;2024-03-08T08:30:34;63.92;;;28.04;;
54143;SDS011;40050;47.324;18.792;2024-03-08T08:32:35;63.83;;;29.49;;
54143;SDS011;40050;47.324;18.792;2024-03-08T08:34:36;59.28;;;28.00;;
54143;SDS011;40050;47.324;18.792;2024-03-08T08:36:37;65.88;;;30.14;;
54143;SDS011;40050;47.324;18.792;2024-03-08T08:38:38;61.60;;;29.14;;
54143;SDS011;40050;47.324;18.792;2024-03-08T08:40:39;60.02;;;28.16;;
54143;SDS011;40050;47.324;18.792;2024-03-08T08:42:40;61.85;;;28.44;;
54143;SDS011;40050;47.324;18.792;2024-03-08T08:44:41;58.52;;;28.06;;
54143;SDS011;40050;47.324;18.792;2024-03-08T08:46:42;62.92;;;27.39;;
54143;SDS011;40050;47.324;18.792;2024-03-08T08:48:43;59.45;;;26.88;;
54143;SDS011;40050;47.324;18.792;2024-03-08T08:50:44;57.59;;;26.99;;
54143;SDS011;40050;47.324;18.792;2024-03-08T08:52:45;55.12;;;26.00;;
54143;SDS011;40050;47.324;18.792;2024-03-08T08:54:45;53.32;;;25.91;;
54143;SDS011;40050;47.324;18.792;2024-03-08T08:56:46;55.79;;;26.32;;
54143;SDS011;40050;47.324;18.792;2024-03-08T08:58:47;55.45;;;26.18;;
54143;SDS011;40050;47.324;18.792;2024-03-08T09:00:49;49.79;;;25.41;;
54143;SDS011;40050;47.324;18.792;2024-03-08T09:02:50;48.99;;;24.42;;
54143;SDS011;40050;47.324;18.792;2024-03-08T09:04:50;51.86;;;26.17;;
54143;SDS011;40050;47.324;18.792;2024-03-08T09:06:51;51.22;;;25.09;;
54143;SDS011;40050;47.324;18.792;2024-03-08T09:08:52;51.93;;;25.30;;
54143;SDS011;40050;47.324;18.792;2024-03-08T09:10:53;49.71;;;25.19;;
54143;SDS011;40050;47.324;18.792;2024-03-08T09:12:54;52.89;;;25.15;;
54143;SDS011;40050;47.324;18.792;2024-03-08T09:14:55;52.65;;;26.03;;
54143;SDS011;40050;47.324;18.792;2024-03-08T09:16:56;54.81;;;25.70;;
54143;SDS011;40050;47.324;18.792;2024-03-08T09:18:57;50.70;;;25.48;;
54143;SDS011;40050;47.324;18.792;2024-03-08T09:20:58;53.94;;;26.03;;
54143;SDS011;40050;47.324;18.792;2024-03-08T09:22:59;54.70;;;26.45;;
54143;SDS011;40050;47.324;18.792;2024-03-08T09:25:00;53.95;;;26.67;;
54143;SDS011;40050;47.324;18.792;2024-03-08T09:27:01;51.08;;;25.50;;
54143;SDS011;40050;47.324;18.792;2024-03-08T09:29:02;55.15;;;26.95;;
54143;SDS011;40050;47.324;18.792;2024-03-08T09:31:03;55.60;;;27.13;;
54143;SDS011;40050;47.324;18.792;2024-03-08T09:33:04;55.33;;;26.07;;
54143;SDS011;40050;47.324;18.792;2024-03-08T09:35:04;58.68;;;26.88;;
54143;SDS011;40050;47.324;18.792;2024-03-08T09:37:05;59.66;;;27.26;;
54143;SDS011;40050;47.324;18.792;2024-03-08T09:39:06;56.34;;;26.01;;
54143;SDS011;40050;47.324;18.792;2024-03-08T09:41:07;57.26;;;26.99;;
54143;SDS011;40050;47.324;18.792;2024-03-08T09:43:09;56.65;;;28.65;;
54143;SDS011;40050;47.324;18.792;2024-03-08T09:45:09;59.08;;;28.18;;
54143;SDS011;40050;47.324;18.792;2024-03-08T09:47:11;60.85;;;28.76;;
54143;SDS011;40050;47.324;18.792;2024-03-08T09:49:11;56.81;;;27.88;;
54143;SDS011;40050;47.324;18.792;2024-03-08T09:51:12;55.25;;;27.10;;
54143;SDS011;40050;47.324;18.792;2024-03-08T09:53:13;58.41;;;27.88;;
54143;SDS011;40050;47.324;18.792;2024-03-08T09:55:14;58.68;;;27.99;;
54143;SDS011;40050;47.324;18.792;2024-03-08T09:57:16;60.14;;;27.40;;
54143;SDS011;40050;47.324;18.792;2024-03-08T09:59:17;54.32;;;26.91;;
54143;SDS011;40050;47.324;18.792;2024-03-08T10:01:18;59.91;;;27.70;;
54143;SDS011;40050;47.324;18.792;2024-03-08T10:03:23;61.19;;;28.51;;
54143;SDS011;40050;47.324;18.792;2024-03-08T10:05:19;60.89;;;28.28;;
54143;SDS011;40050;47.324;18.792;2024-03-08T10:07:20;58.32;;;28.38;;
54143;SDS011;40050;47.324;18.792;2024-03-08T10:09:22;58.31;;;28.11;;
54143;SDS011;40050;47.324;18.792;2024-03-08T10:11:25;58.29;;;27.83;;
54143;SDS011;40050;47.324;18.792;2024-03-08T10:13:25;57.73;;;27.53;;
54143;SDS011;40050;47.324;18.792;2024-03-08T10:15:31;57.85;;;28.10;;
54143;SDS011;40050;47.324;18.792;2024-03-08T10:17:32;56.01;;;28.11;;
54143;SDS011;40050;47.324;18.792;2024-03-08T10:19:33;57.34;;;29.09;;
54143;SDS011;40050;47.324;18.792;2024-03-08T10:21:35;63.20;;;29.77;;
54143;SDS011;40050;47.324;18.792;2024-03-08T10:23:36;60.86;;;28.00;;
54143;SDS011;40050;47.324;18.792;2024-03-08T10:25:37;60.09;;;27.99;;
54143;SDS011;40050;47.324;18.792;2024-03-08T10:27:38;62.51;;;29.55;;
54143;SDS011;40050;47.324;18.792;2024-03-08T10:29:39;54.06;;;27.70;;
54143;SDS011;40050;47.324;18.792;2024-03-08T10:31:42;53.20;;;27.31;;
54143;SDS011;40050;47.324;18.792;2024-03-08T10:33:41;56.81;;;28.09;;
54143;SDS011;40050;47.324;18.792;2024-03-08T10:35:42;56.44;;;26.66;;
54143;SDS011;40050;47.324;18.792;2024-03-08T10:37:46;52.80;;;26.97;;
54143;SDS011;40050;47.324;18.792;2024-03-08T10:40:12;60.32;;;28.91;;
54143;SDS011;40050;47.324;18.792;2024-03-08T10:41:56;59.35;;;27.84;;
54143;SDS011;40050;47.324;18.792;2024-03-08T10:46:12;53.24;;;26.98;;
54143;SDS011;40050;47.324;18.792;2024-03-08T10:50:25;52.88;;;26.46;;
54143;SDS011;40050;47.324;18.792;2024-03-08T10:52:27;54.28;;;26.48;;
54143;SDS011;40050;47.324;18.792;2024-03-08T10:54:28;51.49;;;26.18;;
54143;SDS011;40050;47.324;18.792;2024-03-08T10:56:29;48.87;;;25.89;;
54143;SDS011;40050;47.324;18.792;2024-03-08T10:58:30;50.55;;;26.29;;
54143;SDS011;40050;47.324;18.792;2024-03-08T11:00:31;51.43;;;25.82;;
54143;SDS011;40050;47.324;18.792;2024-03-08T11:02:32;48.12;;;25.13;;
54143;SDS011;40050;47.324;18.792;2024-03-08T11:04:36;46.91;;;24.57;;
54143;SDS011;40050;47.324;18.792;2024-03-08T11:08:47;48.01;;;25.32;;
54143;SDS011;40050;47.324;18.792;2024-03-08T11:10:52;47.87;;;25.22;;
54143;SDS011;40050;47.324;18.792;2024-03-08T11:12:56;50.30;;;26.19;;
54143;SDS011;40050;47.324;18.792;2024-03-08T11:15:16;51.41;;;27.88;;
54143;SDS011;40050;47.324;18.792;2024-03-08T11:17:21;44.34;;;24.37;;
54143;SDS011;40050;47.324;18.792;2024-03-08T11:21:19;48.61;;;26.66;;
54143;SDS011;40050;47.324;18.792;2024-03-08T11:23:25;53.24;;;27.62;;
54143;SDS011;40050;47.324;18.792;2024-03-08T11:25:35;53.91;;;27.02;;
54143;SDS011;40050;47.324;18.792;2024-03-08T11:27:30;49.77;;;26.52;;
54143;SDS011;40050;47.324;18.792;2024-03-08T11:29:59;51.28;;;26.91;;
54143;SDS011;40050;47.324;18.792;2024-03-08T11:32:07;50.96;;;25.82;;
54143;SDS011;40050;47.324;18.792;2024-03-08T11:33:58;50.79;;;25.63;;
54143;SDS011;40050;47.324;18.792;2024-03-08T11:36:12;156.83;;;67.13;;
54143;SDS011;40050;47.324;18.792;2024-03-08T11:38:00;52.38;;;26.84;;
54143;SDS011;40050;47.324;18.792;2024-03-08T11:40:01;48.81;;;25.68;;
54143;SDS011;40050;47.324;18.792;2024-03-08T11:42:02;47.15;;;25.19;;
54143;SDS011;40050;47.324;18.792;2024-03-08T11:44:03;47.01;;;24.79;;
54143;SDS011;40050;47.324;18.792;2024-03-08T11:46:08;44.65;;;23.22;;
54143;SDS011;40050;47.324;18.792;2024-03-08T11:48:06;31.74;;;18.55;;